sensor_id;sensor_type;location;lat;lon;timestamp;temperature;humidity
5419;DHT22;2732;52.092;11.556;2024-03-17T00:01:52;4.40;99.90
5419;DHT22;2732;52.092;11.556;2024-03-17T00:06:52;4.40;99.90
5419;DHT22;2732;52.092;11.556;2024-03-17T00:11:53;4.30;99.90
5419;DHT22;2732;52.092;11.556;2024-03-17T00:16:54;4.30;99.90
5419;DHT22;2732;52.092;11.556;2024-03-17T00:21:55;4.30;99.90
5419;DHT22;2732;52.092;11.556;2024-03-17T00:26:55;4.30;99.90
5419;DHT22;2732;52.092;11.556;2024-03-17T00:31:56;4.20;99.90
5419;DHT22;2732;52.092;11.556;2024-03-17T00:36:57;4.20;99.90
5419;DHT22;2732;52.092;11.556;2024-03-17T00:41:57;4.20;99.90
5419;DHT22;2732;52.092;11.556;2024-03-17T00:46:58;4.20;99.90
5419;DHT22;2732;52.092;11.556;2024-03-17T00:51:58;4.20;99.90
5419;DHT22;2732;52.092;11.556;2024-03-17T00:56:59;4.20;99.90
5419;DHT22;2732;52.092;11.556;2024-03-17T01:01:59;4.10;99.90
5419;DHT22;2732;52.092;11.556;2024-03-17T01:07:00;4.10;99.90
5419;DHT22;2732;52.092;11.556;2024-03-17T01:12:01;4.10;99.90
5419;DHT22;2732;52.092;11.556;2024-03-17T01:17:02;4.10;99.90
5419;DHT22;2732;52.092;11.556;2024-03-17T01:22:05;4.00;99.90
5419;DHT22;2732;52.092;11.556;2024-03-17T01:27:06;4.00;99.90
5419;DHT22;2732;52.092;11.556;2024-03-17T01:32:06;4.00;99.90
5419;DHT22;2732;52.092;11.556;2024-03-17T01:37:07;4.00;99.90
5419;DHT22;2732;52.092;11.556;2024-03-17T01:42:08;3.90;99.90
5419;DHT22;2732;52.092;11.556;2024-03-17T01:47:09;3.90;99.90
5419;DHT22;2732;52.092;11.556;2024-03-17T01:52:09;3.90;99.90
5419;DHT22;2732;52.092;11.556;2024-03-17T01:57:10;3.90;99.90
5419;DHT22;2732;52.092;11.556;2024-03-17T02:02:11;3.80;99.90
5419;DHT22;2732;52.092;11.556;2024-03-17T02:07:11;3.80;99.90
5419;DHT22;2732;52.092;11.556;2024-03-17T02:12:12;3.80;99.90
5419;DHT22;2732;52.092;11.556;2024-03-17T02:17:13;3.80;99.90
5419;DHT22;2732;52.092;11.556;2024-03-17T02:22:14;3.70;99.90
5419;DHT22;2732;52.092;11.556;2024-03-17T02:27:17;3.70;99.90
5419;DHT22;2732;52.092;11.556;2024-03-17T02:32:17;3.70;99.90
5419;DHT22;2732;52.092;11.556;2024-03-17T02:37:20;3.70;99.90
5419;DHT22;2732;52.092;11.556;2024-03-17T02:42:21;3.60;99.90
5419;DHT22;2732;52.092;11.556;2024-03-17T02:47:21;3.60;99.90
5419;DHT22;2732;52.092;11.556;2024-03-17T02:52:22;3.60;99.90
5419;DHT22;2732;52.092;11.556;2024-03-17T02:57:24;3.50;99.90
5419;DHT22;2732;52.092;11.556;2024-03-17T03:02:29;3.40;99.90
5419;DHT22;2732;52.092;11.556;2024-03-17T03:07:30;3.40;99.90
5419;DHT22;2732;52.092;11.556;2024-03-17T03:12:30;3.40;99.90
5419;DHT22;2732;52.092;11.556;2024-03-17T03:17:31;3.30;99.90
5419;DHT22;2732;52.092;11.556;2024-03-17T03:22:32;3.20;99.90
5419;DHT22;2732;52.092;11.556;2024-03-17T03:27:32;3.20;99.90
5419;DHT22;2732;52.092;11.556;2024-03-17T03:32:34;3.20;99.90
5419;DHT22;2732;52.092;11.556;2024-03-17T03:37:34;3.20;99.90
5419;DHT22;2732;52.092;11.556;2024-03-17T03:42:35;3.10;99.90
5419;DHT22;2732;52.092;11.556;2024-03-17T03:47:35;3.10;99.90
5419;DHT22;2732;52.092;11.556;2024-03-17T03:52:37;3.10;99.90
5419;DHT22;2732;52.092;11.556;2024-03-17T03:57:37;3.10;99.90
5419;DHT22;2732;52.092;11.556;2024-03-17T04:02:44;3.10;99.90
5419;DHT22;2732;52.092;11.556;2024-03-17T04:07:46;3.10;99.90
5419;DHT22;2732;52.092;11.556;2024-03-17T04:12:47;3.00;99.90
5419;DHT22;2732;52.092;11.556;2024-03-17T04:17:48;3.00;99.90
5419;DHT22;2732;52.092;11.556;2024-03-17T04:22:48;3.00;99.90
5419;DHT22;2732;52.092;11.556;2024-03-17T04:27:49;3.00;99.90
5419;DHT22;2732;52.092;11.556;2024-03-17T04:32:50;3.00;99.90
5419;DHT22;2732;52.092;11.556;2024-03-17T04:37:50;2.90;99.90
5419;DHT22;2732;52.092;11.556;2024-03-17T04:42:51;2.90;99.90
5419;DHT22;2732;52.092;11.556;2024-03-17T04:47:52;2.90;99.90
5419;DHT22;2732;52.092;11.556;2024-03-17T04:52:52;2.80;99.90
5419;DHT22;2732;52.092;11.556;2024-03-17T04:57:53;2.80;99.90
5419;DHT22;2732;52.092;11.556;2024-03-17T05:02:54;2.70;99.90
5419;DHT22;2732;52.092;11.556;2024-03-17T05:07:54;2.60;99.90
5419;DHT22;2732;52.092;11.556;2024-03-17T05:12:55;2.60;99.90
5419;DHT22;2732;52.092;11.556;2024-03-17T05:17:56;2.50;99.90
5419;DHT22;2732;52.092;11.556;2024-03-17T05:22:57;2.40;99.90
5419;DHT22;2732;52.092;11.556;2024-03-17T05:27:57;2.40;99.90
5419;DHT22;2732;52.092;11.556;2024-03-17T05:32:58;2.30;99.90
5419;DHT22;2732;52.092;11.556;2024-03-17T05:37:58;2.30;99.90
5419;DHT22;2732;52.092;11.556;2024-03-17T05:42:59;2.20;99.90
5419;DHT22;2732;52.092;11.556;2024-03-17T05:48:00;2.10;99.90
5419;DHT22;2732;52.092;11.556;2024-03-17T05:53:05;2.10;99.90
5419;DHT22;2732;52.092;11.556;2024-03-17T05:58:06;2.10;99.90
5419;DHT22;2732;52.092;11.556;2024-03-17T06:03:09;2.10;99.90
5419;DHT22;2732;52.092;11.556;2024-03-17T06:08:09;2.20;99.90
5419;DHT22;2732;52.092;11.556;2024-03-17T06:13:11;2.30;99.90
5419;DHT22;2732;52.092;11.556;2024-03-17T06:18:13;2.40;99.90
5419;DHT22;2732;52.092;11.556;2024-03-17T06:23:15;2.50;99.90
5419;DHT22;2732;52.092;11.556;2024-03-17T06:28:17;2.60;99.90
5419;DHT22;2732;52.092;11.556;2024-03-17T06:33:17;2.70;99.90
5419;DHT22;2732;52.092;11.556;2024-03-17T06:38:21;2.80;99.90
5419;DHT22;2732;52.092;11.556;2024-03-17T06:43:21;3.00;99.90
5419;DHT22;2732;52.092;11.556;2024-03-17T06:48:22;3.20;99.90
5419;DHT22;2732;52.092;11.556;2024-03-17T06:53:24;3.40;99.90
5419;DHT22;2732;52.092;11.556;2024-03-17T06:58:27;3.50;99.90
5419;DHT22;2732;52.092;11.556;2024-03-17T07:03:31;3.70;99.90
5419;DHT22;2732;52.092;11.556;2024-03-17T07:08:32;4.00;99.90
5419;DHT22;2732;52.092;11.556;2024-03-17T07:13:34;4.20;99.90
5419;DHT22;2732;52.092;11.556;2024-03-17T07:18:36;4.40;99.90
5419;DHT22;2732;52.092;11.556;2024-03-17T07:23:37;4.60;99.90
5419;DHT22;2732;52.092;11.556;2024-03-17T07:28:39;4.90;99.90
5419;DHT22;2732;52.092;11.556;2024-03-17T07:33:40;5.10;99.90
5419;DHT22;2732;52.092;11.556;2024-03-17T07:38:41;5.40;99.90
5419;DHT22;2732;52.092;11.556;2024-03-17T07:43:42;5.60;99.90
5419;DHT22;2732;52.092;11.556;2024-03-17T07:48:43;5.80;99.90
5419;DHT22;2732;52.092;11.556;2024-03-17T07:53:46;6.00;99.90
5419;DHT22;2732;52.092;11.556;2024-03-17T07:58:48;6.30;99.90
5419;DHT22;2732;52.092;11.556;2024-03-17T08:03:50;6.50;99.90
5419;DHT22;2732;52.092;11.556;2024-03-17T08:08:55;6.70;99.90
5419;DHT22;2732;52.092;11.556;2024-03-17T08:13:57;6.90;99.90
5419;DHT22;2732;52.092;11.556;2024-03-17T08:18:57;7.10;99.90
5419;DHT22;2732;52.092;11.556;2024-03-17T08:23:58;7.40;99.90
5419;DHT22;2732;52.092;11.556;2024-03-17T08:28:59;7.60;99.90
5419;DHT22;2732;52.092;11.556;2024-03-17T08:33:59;7.80;99.90
5419;DHT22;2732;52.092;11.556;2024-03-17T08:39:00;8.00;99.90
5419;DHT22;2732;52.092;11.556;2024-03-17T08:44:02;8.30;99.90
5419;DHT22;2732;52.092;11.556;2024-03-17T08:49:02;8.70;99.90
5419;DHT22;2732;52.092;11.556;2024-03-17T08:54:03;8.80;99.90
5419;DHT22;2732;52.092;11.556;2024-03-17T08:59:03;8.90;99.90
5419;DHT22;2732;52.092;11.556;2024-03-17T09:04:04;9.10;99.90
5419;DHT22;2732;52.092;11.556;2024-03-17T09:09:04;9.30;99.90
5419;DHT22;2732;52.092;11.556;2024-03-17T09:14:06;9.40;99.90
5419;DHT22;2732;52.092;11.556;2024-03-17T09:19:08;9.60;99.90
5419;DHT22;2732;52.092;11.556;2024-03-17T09:24:09;9.80;99.90
5419;DHT22;2732;52.092;11.556;2024-03-17T09:29:10;9.90;99.90
5419;DHT22;2732;52.092;11.556;2024-03-17T09:34:10;10.10;99.90
5419;DHT22;2732;52.092;11.556;2024-03-17T09:39:11;10.10;99.90
5419;DHT22;2732;52.092;11.556;2024-03-17T09:44:14;10.20;99.90
5419;DHT22;2732;52.092;11.556;2024-03-17T09:49:16;10.80;99.90
5419;DHT22;2732;52.092;11.556;2024-03-17T09:54:19;11.00;99.90
5419;DHT22;2732;52.092;11.556;2024-03-17T09:59:20;11.10;99.90
5419;DHT22;2732;52.092;11.556;2024-03-17T10:04:32;11.00;99.90
5419;DHT22;2732;52.092;11.556;2024-03-17T10:09:37;10.80;99.90
5419;DHT22;2732;52.092;11.556;2024-03-17T10:14:39;10.60;99.90
5419;DHT22;2732;52.092;11.556;2024-03-17T10:19:39;10.40;99.90
5419;DHT22;2732;52.092;11.556;2024-03-17T10:24:40;10.50;99.90
5419;DHT22;2732;52.092;11.556;2024-03-17T10:29:43;11.30;99.90
5419;DHT22;2732;52.092;11.556;2024-03-17T10:34:44;11.60;99.90
5419;DHT22;2732;52.092;11.556;2024-03-17T10:39:46;12.20;99.90
5419;DHT22;2732;52.092;11.556;2024-03-17T10:44:48;12.60;99.90
5419;DHT22;2732;52.092;11.556;2024-03-17T10:49:54;12.30;99.90
5419;DHT22;2732;52.092;11.556;2024-03-17T10:54:55;12.00;99.90
5419;DHT22;2732;52.092;11.556;2024-03-17T10:59:57;12.90;99.90
5419;DHT22;2732;52.092;11.556;2024-03-17T11:04:59;13.70;99.00
5419;DHT22;2732;52.092;11.556;2024-03-17T11:10:03;14.30;98.00
5419;DHT22;2732;52.092;11.556;2024-03-17T11:20:27;14.70;97.50
5419;DHT22;2732;52.092;11.556;2024-03-17T11:25:40;14.90;97.60
5419;DHT22;2732;52.092;11.556;2024-03-17T11:35:44;15.50;97.30
5419;DHT22;2732;52.092;11.556;2024-03-17T11:40:45;15.70;96.80
5419;DHT22;2732;52.092;11.556;2024-03-17T11:45:45;15.70;95.60
5419;DHT22;2732;52.092;11.556;2024-03-17T11:50:46;15.40;95.60
5419;DHT22;2732;52.092;11.556;2024-03-17T11:55:50;15.00;95.90
5419;DHT22;2732;52.092;11.556;2024-03-17T12:00:53;14.50;96.20
5419;DHT22;2732;52.092;11.556;2024-03-17T12:05:54;14.20;95.70
5419;DHT22;2732;52.092;11.556;2024-03-17T12:10:55;14.30;96.10
5419;DHT22;2732;52.092;11.556;2024-03-17T12:16:13;13.90;96.40
5419;DHT22;2732;52.092;11.556;2024-03-17T12:21:14;13.70;96.60
5419;DHT22;2732;52.092;11.556;2024-03-17T12:26:16;14.20;96.70
5419;DHT22;2732;52.092;11.556;2024-03-17T12:31:16;14.90;95.60
5419;DHT22;2732;52.092;11.556;2024-03-17T12:36:17;15.50;95.90
5419;DHT22;2732;52.092;11.556;2024-03-17T12:41:18;16.00;95.90
5419;DHT22;2732;52.092;11.556;2024-03-17T12:46:18;16.50;94.50
5419;DHT22;2732;52.092;11.556;2024-03-17T12:51:19;16.80;93.90
5419;DHT22;2732;52.092;11.556;2024-03-17T12:56:23;17.10;93.40
5419;DHT22;2732;52.092;11.556;2024-03-17T13:01:42;17.30;92.50
5419;DHT22;2732;52.092;11.556;2024-03-17T13:06:43;17.30;92.80
5419;DHT22;2732;52.092;11.556;2024-03-17T13:11:43;17.50;92.00
5419;DHT22;2732;52.092;11.556;2024-03-17T13:16:44;17.30;91.70
5419;DHT22;2732;52.092;11.556;2024-03-17T13:21:44;17.20;91.40
5419;DHT22;2732;52.092;11.556;2024-03-17T13:26:46;17.00;91.30
5419;DHT22;2732;52.092;11.556;2024-03-17T13:31:48;16.80;91.60
5419;DHT22;2732;52.092;11.556;2024-03-17T13:36:48;16.60;91.50
5419;DHT22;2732;52.092;11.556;2024-03-17T13:41:49;16.50;91.60
5419;DHT22;2732;52.092;11.556;2024-03-17T13:46:51;16.50;92.20
5419;DHT22;2732;52.092;11.556;2024-03-17T13:51:52;16.60;92.30
5419;DHT22;2732;52.092;11.556;2024-03-17T13:56:53;16.60;92.00
5419;DHT22;2732;52.092;11.556;2024-03-17T14:01:54;16.70;90.50
5419;DHT22;2732;52.092;11.556;2024-03-17T14:06:54;16.60;89.70
5419;DHT22;2732;52.092;11.556;2024-03-17T14:11:55;16.60;90.90
5419;DHT22;2732;52.092;11.556;2024-03-17T14:16:57;16.60;91.00
5419;DHT22;2732;52.092;11.556;2024-03-17T14:21:57;16.50;90.70
5419;DHT22;2732;52.092;11.556;2024-03-17T14:26:58;16.50;91.50
5419;DHT22;2732;52.092;11.556;2024-03-17T14:31:58;16.50;90.30
5419;DHT22;2732;52.092;11.556;2024-03-17T14:36:59;16.40;90.10
5419;DHT22;2732;52.092;11.556;2024-03-17T14:41:59;16.20;90.50
5419;DHT22;2732;52.092;11.556;2024-03-17T14:47:00;16.00;91.00
5419;DHT22;2732;52.092;11.556;2024-03-17T14:52:01;16.10;91.20
5419;DHT22;2732;52.092;11.556;2024-03-17T14:57:02;16.10;91.40
5419;DHT22;2732;52.092;11.556;2024-03-17T15:02:02;16.10;91.30
5419;DHT22;2732;52.092;11.556;2024-03-17T15:07:03;16.10;91.50
5419;DHT22;2732;52.092;11.556;2024-03-17T15:12:04;16.00;91.10
5419;DHT22;2732;52.092;11.556;2024-03-17T15:17:07;16.00;91.20
5419;DHT22;2732;52.092;11.556;2024-03-17T15:22:08;15.90;91.40
5419;DHT22;2732;52.092;11.556;2024-03-17T15:27:08;15.90;91.20
5419;DHT22;2732;52.092;11.556;2024-03-17T15:32:10;15.90;91.70
5419;DHT22;2732;52.092;11.556;2024-03-17T15:37:11;15.90;91.80
5419;DHT22;2732;52.092;11.556;2024-03-17T15:42:12;15.90;91.50
5419;DHT22;2732;52.092;11.556;2024-03-17T15:47:13;15.80;91.40
5419;DHT22;2732;52.092;11.556;2024-03-17T15:52:14;15.70;91.40
5419;DHT22;2732;52.092;11.556;2024-03-17T15:57:14;15.70;91.60
5419;DHT22;2732;52.092;11.556;2024-03-17T16:02:15;15.60;91.50
5419;DHT22;2732;52.092;11.556;2024-03-17T16:07:17;15.50;91.50
5419;DHT22;2732;52.092;11.556;2024-03-17T16:12:19;15.30;91.30
5419;DHT22;2732;52.092;11.556;2024-03-17T16:17:21;15.10;91.30
5419;DHT22;2732;52.092;11.556;2024-03-17T16:22:22;14.90;91.40
5419;DHT22;2732;52.092;11.556;2024-03-17T16:27:22;14.70;91.50
5419;DHT22;2732;52.092;11.556;2024-03-17T16:32:23;14.40;91.50
5419;DHT22;2732;52.092;11.556;2024-03-17T16:37:24;14.20;91.50
5419;DHT22;2732;52.092;11.556;2024-03-17T16:42:24;13.80;91.60
5419;DHT22;2732;52.092;11.556;2024-03-17T16:47:29;13.50;91.70
5419;DHT22;2732;52.092;11.556;2024-03-17T16:52:32;13.20;91.80
5419;DHT22;2732;52.092;11.556;2024-03-17T16:57:33;12.80;91.80
5419;DHT22;2732;52.092;11.556;2024-03-17T17:02:35;12.50;92.10
5419;DHT22;2732;52.092;11.556;2024-03-17T17:07:35;12.20;92.30
5419;DHT22;2732;52.092;11.556;2024-03-17T17:12:36;11.90;92.70
5419;DHT22;2732;52.092;11.556;2024-03-17T17:17:37;11.60;92.90
5419;DHT22;2732;52.092;11.556;2024-03-17T17:22:38;11.30;93.10
5419;DHT22;2732;52.092;11.556;2024-03-17T17:27:38;10.90;93.30
5419;DHT22;2732;52.092;11.556;2024-03-17T17:32:39;10.60;93.50
5419;DHT22;2732;52.092;11.556;2024-03-17T17:37:40;10.30;93.80
5419;DHT22;2732;52.092;11.556;2024-03-17T17:42:41;10.10;94.00
5419;DHT22;2732;52.092;11.556;2024-03-17T17:47:41;9.80;94.70
5419;DHT22;2732;52.092;11.556;2024-03-17T17:52:44;9.60;94.60
5419;DHT22;2732;52.092;11.556;2024-03-17T17:57:44;9.40;94.70
5419;DHT22;2732;52.092;11.556;2024-03-17T18:02:45;9.30;94.70
5419;DHT22;2732;52.092;11.556;2024-03-17T18:07:45;9.10;94.90
5419;DHT22;2732;52.092;11.556;2024-03-17T18:12:46;9.00;95.10
5419;DHT22;2732;52.092;11.556;2024-03-17T18:17:47;8.80;95.50
5419;DHT22;2732;52.092;11.556;2024-03-17T18:22:48;8.70;95.30
5419;DHT22;2732;52.092;11.556;2024-03-17T18:27:49;8.50;95.50
5419;DHT22;2732;52.092;11.556;2024-03-17T18:32:50;8.40;95.50
5419;DHT22;2732;52.092;11.556;2024-03-17T18:37:51;8.20;95.60
5419;DHT22;2732;52.092;11.556;2024-03-17T18:42:52;8.10;95.70
5419;DHT22;2732;52.092;11.556;2024-03-17T18:47:52;8.00;95.80
5419;DHT22;2732;52.092;11.556;2024-03-17T18:52:53;7.90;95.90
5419;DHT22;2732;52.092;11.556;2024-03-17T18:57:54;7.70;96.00
5419;DHT22;2732;52.092;11.556;2024-03-17T19:02:54;7.60;96.10
5419;DHT22;2732;52.092;11.556;2024-03-17T19:07:55;7.50;96.20
5419;DHT22;2732;52.092;11.556;2024-03-17T19:12:55;7.40;96.20
5419;DHT22;2732;52.092;11.556;2024-03-17T19:17:56;7.30;96.40
5419;DHT22;2732;52.092;11.556;2024-03-17T19:22:57;7.20;96.60
5419;DHT22;2732;52.092;11.556;2024-03-17T19:27:58;7.10;96.70
5419;DHT22;2732;52.092;11.556;2024-03-17T19:32:58;7.00;97.10
5419;DHT22;2732;52.092;11.556;2024-03-17T19:37:59;6.90;97.00
5419;DHT22;2732;52.092;11.556;2024-03-17T19:43:00;6.80;97.00
5419;DHT22;2732;52.092;11.556;2024-03-17T19:48:01;6.70;97.10
5419;DHT22;2732;52.092;11.556;2024-03-17T19:53:03;6.70;97.30
5419;DHT22;2732;52.092;11.556;2024-03-17T19:58:05;6.60;97.40
5419;DHT22;2732;52.092;11.556;2024-03-17T20:03:05;6.50;97.50
5419;DHT22;2732;52.092;11.556;2024-03-17T20:08:07;6.40;97.50
5419;DHT22;2732;52.092;11.556;2024-03-17T20:13:07;6.40;97.60
5419;DHT22;2732;52.092;11.556;2024-03-17T20:18:08;6.40;97.60
5419;DHT22;2732;52.092;11.556;2024-03-17T20:23:09;6.30;97.70
5419;DHT22;2732;52.092;11.556;2024-03-17T20:28:12;6.20;97.80
5419;DHT22;2732;52.092;11.556;2024-03-17T20:33:13;6.20;97.90
5419;DHT22;2732;52.092;11.556;2024-03-17T20:38:14;6.20;98.00
5419;DHT22;2732;52.092;11.556;2024-03-17T20:43:16;6.10;98.10
5419;DHT22;2732;52.092;11.556;2024-03-17T20:48:17;6.10;98.10
5419;DHT22;2732;52.092;11.556;2024-03-17T20:53:17;6.10;98.20
5419;DHT22;2732;52.092;11.556;2024-03-17T20:58:18;6.00;98.20
5419;DHT22;2732;52.092;11.556;2024-03-17T21:03:19;6.00;98.30
5419;DHT22;2732;52.092;11.556;2024-03-17T21:08:20;6.00;98.40
5419;DHT22;2732;52.092;11.556;2024-03-17T21:13:20;6.00;98.50
5419;DHT22;2732;52.092;11.556;2024-03-17T21:18:21;5.90;98.50
5419;DHT22;2732;52.092;11.556;2024-03-17T21:23:23;5.90;98.60
5419;DHT22;2732;52.092;11.556;2024-03-17T21:28:23;5.90;98.70
5419;DHT22;2732;52.092;11.556;2024-03-17T21:33:24;5.90;98.80
5419;DHT22;2732;52.092;11.556;2024-03-17T21:38:25;5.80;98.80
5419;DHT22;2732;52.092;11.556;2024-03-17T21:43:25;5.80;98.90
5419;DHT22;2732;52.092;11.556;2024-03-17T21:48:26;5.80;99.00
5419;DHT22;2732;52.092;11.556;2024-03-17T21:53:27;5.80;99.10
5419;DHT22;2732;52.092;11.556;2024-03-17T21:58:29;5.80;99.20
5419;DHT22;2732;52.092;11.556;2024-03-17T22:03:30;5.70;99.10
5419;DHT22;2732;52.092;11.556;2024-03-17T22:08:35;5.70;99.20
5419;DHT22;2732;52.092;11.556;2024-03-17T22:13:35;5.60;99.20
5419;DHT22;2732;52.092;11.556;2024-03-17T22:18:37;5.60;99.20
5419;DHT22;2732;52.092;11.556;2024-03-17T22:23:42;5.50;99.20
5419;DHT22;2732;52.092;11.556;2024-03-17T22:28:43;5.50;99.30
5419;DHT22;2732;52.092;11.556;2024-03-17T22:33:43;5.40;99.40
5419;DHT22;2732;52.092;11.556;2024-03-17T22:38:44;5.40;99.50
5419;DHT22;2732;52.092;11.556;2024-03-17T22:43:45;5.30;99.50
5419;DHT22;2732;52.092;11.556;2024-03-17T22:48:45;5.30;99.60
5419;DHT22;2732;52.092;11.556;2024-03-17T22:53:46;5.30;99.70
5419;DHT22;2732;52.092;11.556;2024-03-17T22:58:47;5.20;99.70
5419;DHT22;2732;52.092;11.556;2024-03-17T23:03:47;5.20;99.70
5419;DHT22;2732;52.092;11.556;2024-03-17T23:08:48;5.10;99.80
5419;DHT22;2732;52.092;11.556;2024-03-17T23:13:49;5.10;99.90
5419;DHT22;2732;52.092;11.556;2024-03-17T23:18:49;5.00;99.90
5419;DHT22;2732;52.092;11.556;2024-03-17T23:23:50;5.00;99.90
5419;DHT22;2732;52.092;11.556;2024-03-17T23:28:51;4.90;99.90
5419;DHT22;2732;52.092;11.556;2024-03-17T23:33:51;4.90;99.90
5419;DHT22;2732;52.092;11.556;2024-03-17T23:38:52;4.90;99.90
5419;DHT22;2732;52.092;11.556;2024-03-17T23:43:53;4.80;99.90
5419;DHT22;2732;52.092;11.556;2024-03-17T23:48:54;4.80;99.90
5419;DHT22;2732;52.092;11.556;2024-03-17T23:53:54;4.70;99.90
5419;DHT22;2732;52.092;11.556;2024-03-17T23:58:55;4.70;99.90
